Aviation Digital Data Service (ADDS)

Output produced by METARs form (0142 UTC 23 November 2017)
found at http://www.aviationweather.gov/adds/metars/
 
LIEA 230120Z 05003KT 2000 MIFG NSC 07/06 Q1019
TAF LIEA 222300Z 2300/2324 VRB05KT 4000 BR FEW015 
     TEMPO 2300/2306 0600 FG 
     BECMG 2307/2309 9999
       
TAF LIBA 221700Z 2218/2303 VRB05KT 6000 FEW020 
     TEMPO 2220/2303 3000 BR FEW015
       
LIPA 222055Z 03005KT 9999 FEW090 04/04 Q1020 RMK FEW VIS MIN 9999 WIND THR05 /////KT WIND THR23 /////KT A3013 BLU
TAF LIPA 222000Z 2221/2306 06006KT 9999 SCT050 
     PROB30 
     TEMPO 2300/2306 3000 BR
       
LIME 230120Z 32006KT 4000 BR SCT060 08/06 Q1020 NOSIG
TAF LIME 222300Z 2300/2324 VRB05KT 3500 BR BKN050 
     TEMPO 2300/2306 DZ
       
LIPE 230050Z 12004KT 4000 BR BKN060 08/07 Q1020
TAF LIPE 222300Z 2300/2324 VRB05KT 4000 BR SCT045 
     TEMPO 2300/2307 1200 BCFG BKN010 
     BECMG 2308/2311 7000 
     BECMG 2317/2319 3000 BR
       
LIPB 222150Z 34003KT CAVOK 03/02 Q1022
TAF LIPB 221700Z 2218/2318 VRB05KT CAVOK 
     TEMPO 2300/2306 4000 BR
       
TAF LIMN 221700Z 2218/2303 18006KT 2500 BR NSC 
     TEMPO 2218/2303 VRB03KT 0800 FG BKN008 
     PROB30 
     TEMPO 2222/2303 1200 RA BR BKN015
       
LIRN 230120Z 02002KT 9999 SCT050 12/09 Q1021 NOSIG
TAF LIRN 222300Z 2300/2324 VRB06KT 9999 SCT030
       
LIBR 230115Z 22004KT CAVOK 08/08 Q1021 NOSIG
TAF LIBR 222300Z 2300/2324 20006KT CAVOK 
     PROB30 
     TEMPO 2302/2306 5000 BR
       
LICC 230120Z 25005KT CAVOK 07/06 Q1021
TAF LICC 222300Z 2300/2324 VRB05KT CAVOK 
     TEMPO 2300/2306 4000 BR
       
LIPC 230055Z 26003KT 2600 BR BKN060 09/07 Q1020 RMK BKN VIS MIN 2600 WIND THR11 27005KT WIND THR29 /////KT YLO
TAF LIPC 222300Z 2300/2309 25006KT 3000 BR BKN040 
     TEMPO 2300/2309 VRB03KT 1200 BR BKN015 
     PROB40 
     TEMPO 2300/2307 0500 FG BKN005
       
LIRA 230050Z 10005KT CAVOK 09/06 Q1021
TAF LIRA 222300Z 2300/2324 VRB05KT 9999 FEW030 
     TEMPO 2302/2306 4000 BR
       
LIED 230055Z 32004KT 9999 FEW025 09/07 Q1018 RMK FEW VIS MIN 9999 WIND THR35 32003KT WIND THR17 /////KT BLU
TAF LIED 222000Z 2221/2306 08005KT 8000 FEW006 
     BECMG 2300/2302 VRB03KT CAVOK 
     TEMPO 2304/2306 5000 BR SCT004
       
LIEE 230120Z 31004KT 9999 FEW020 09/08 Q1018
TAF LIEE 222300Z 2300/2324 VRB05KT 9999 SCT030 
     TEMPO 2302/2306 4000 BR
       
LIPY 222350Z 21004KT 9999 BKN045 09/07 Q1020
TAF LIPY 222300Z 2300/2324 VRB05KT 9999 FEW030 
     TEMPO 2300/2306 4000 BR
       
LIRF 230120Z 08004KT 6000 BCFG NSC 08/08 Q1021 TEMPO 2000 BR
TAF LIRF 222300Z 2300/2406 VRB05KT 9999 FEW030 
     BECMG 2309/2311 16010KT
       
LIMJ 230120Z 34003KT 310V020 9999 FEW015 SCT030 13/11 Q1019
TAF LIMJ 222300Z 2300/2324 03006KT 9999 SCT015 BKN035 
     TEMPO 2300/2324 DZ
       
LIPL 230055Z /////KT 4000 BR BKN070 09/07 Q1021 RMK BKN VIS MIN 4000 WIND THR31 05004KT GRN
TAF LIPL 222300Z 2300/2309 06006KT 4000 BR BKN040 
     TEMPO 2300/2309 1200 BR 
     PROB40 
     TEMPO 2301/2307 0500 FG BKN008
       
LIBV 230055Z 14003KT 0400 R32L/0400 R14R/0700 FG OVC002 06/06 Q1020 RMK OVC VIS MIN 0400 WIND THR32 15002KT WIND THR14 16001KT RED
TAF LIBV 222300Z 2300/2309 VRB03KT 1200 BR SCT005 
     BECMG 2306/2309 7000 FEW018
       
LIRM 230055Z /////KT CAVOK 12/11 Q1021
TAF LIRM 222300Z 2300/2309 05007KT 9999 FEW025 SCT040 
     TEMPO 2301/2306 5000 BR
       
LIRS 230055Z 03005KT 9999 FEW018 12/10 Q1020 RMK FEW VIS MIN 9999 WIND THR03 03006KT WIND THR21 04004KT BLU
TAF LIRS 222300Z 2300/2309 14007KT 9999 SCT020 SCT040
       
TAF LIBG 221700Z 2218/2303 VRB05KT CAVOK
       
LIPS 230055Z 00000KT 3000 BR BKN060 06/05 Q1020 RMK BKN VIS MIN 3000 WIND THR26 36003KT WIND THR08 36003KT YLO
TAF LIPS 222300Z 2300/2309 01006KT 4000 BR BKN050 
     TEMPO 2300/2309 1500 BR 
     PROB40 
     TEMPO 2301/2307 0800 FG BKN008
       
LICA 230050Z 10007KT 9999 SCT025 09/08 Q1022
TAF LICA 222300Z 2300/2324 VRB05KT 9999 SCT020 
     BECMG 2308/2310 27010KT 
     BECMG 2317/2319 VRB05KT
       
LICD 222050Z 18008KT CAVOK 18/13 Q1021
TAF LICD 221700Z 2218/2318 18008KT 9999 SCT035
       
TAF LIRL 221700Z 2218/2303 11005KT 9999 SCT025 SCT050
       
LIBN 230055Z 10005KT CAVOK 08/06 Q1021 RMK SKC VIS MIN 9999 WIND THR14 12003KT WIND THR32 11003KT BLU
LIMZ 221950Z 24004KT 4000 BR NSC 03/02 Q1020
TAF LIMZ 221700Z 2218/2318 VRB05KT 4000 BR SCT050 
     TEMPO 2221/2309 2500 DZ
       
LIML 230120Z VRB01KT 3500 BR FEW040 BKN060 09/06 Q1020 NOSIG
TAF LIML 222300Z 2300/2324 VRB05KT 3500 BR BKN050 
     TEMPO 2300/2312 DZ
       
LIMC 230120Z 19002KT 3000 BR OVC055 08/07 Q1021 NOSIG
TAF LIMC 222300Z 2300/2406 VRB05KT 6000 SCT025 BKN050 
     TEMPO 2300/2309 2500 DZ
       
LIPO 230050Z 07004KT 6000 SCT060 09/06 Q1020
TAF LIPO 222300Z 2300/2324 VRB05KT 4000 BR BKN040
       
LIEO 230120Z 18002KT CAVOK 06/05 Q1019
TAF LIEO 222300Z 2300/2324 VRB05KT CAVOK 
     BECMG 2310/2312 07010KT 
     BECMG 2316/2318 VRB05KT
       
LICJ 230120Z 09005KT 050V120 CAVOK 16/09 Q1020
TAF LICJ 222300Z 2300/2324 VRB05KT 9999 SCT030 
     BECMG 2306/2309 04010KT 
     BECMG 2318/2320 VRB05KT
       
LIBD 230120Z 26003KT CAVOK 09/08 Q1021
TAF LIBD 222300Z 2300/2324 VRB05KT 8000 FEW020
       
TAF LICG 221700Z 2218/2303 18012KT 9999 SCT020
       
LIMP 222150Z 11004KT 2500 BR BKN050 10/06 Q1020
TAF LIMP 221700Z 2218/2318 VRB05KT 2000 BR BKN050
       
LIRQ 230120Z 00000KT 7000 BKN035 09/09 Q1020
TAF LIRQ 222300Z 2300/2324 VRB06KT 8000 SCT040 
     TEMPO 2300/2306 3000 BR
       
LIRZ 222150Z VRB01KT 9000 BKN050 10/09 Q1021
TAF LIRZ 221700Z 2218/2318 VRB05KT 8000 BKN050 
     TEMPO 2300/2307 3000 BR
       
LIBP 230050Z AUTO 20005KT 4900 BR NCD 03/03 Q1021
TAF LIBP 222300Z 2300/2324 VRB05KT 8000 FEW020 
     TEMPO 2300/2306 2000 BR
       
LIRP 230115Z 12006KT 9999 SCT030 09/09 Q1019 NOSIG
TAF LIRP 222300Z 2300/2324 10008KT 9999 FEW030 
     TEMPO 2300/2308 VRB03KT 5000 BR NSC 
     PROB40 
     TEMPO 2302/2307 1500 MIFG SCT005
       
LIRE 230055Z 08005KT CAVOK 13/11 Q1020 RMK SKC VIS MIN 9999 WIND THR13 06002KT WIND THR31 /////KT BLU
TAF LIRE 222300Z 2300/2309 09009KT 9999 SCT040
       
LICR 222250Z 07003KT CAVOK 12/08 Q1021
TAF LICR 221700Z 2218/2318 VRB05KT 9999 SCT030
       
LIPR 230115Z 29002KT 3000 BR FEW030 BKN060 10/09 Q1019
TAF LIPR 222300Z 2300/2309 27006KT 3000 BR BKN030 
     TEMPO 2300/2309 VRB03KT 1200 BR BKN015 
     PROB40 
     TEMPO 2300/2307 0500 FG BKN005
       
LIPQ 230120Z AUTO 01003KT 9999 OVC059/// 09/06 Q1020
TAF LIPQ 222300Z 2300/2324 VRB05KT 4000 BR SCT040 
     TEMPO 2300/2306 1500 BCFG BKN010 
     BECMG 2307/2310 7000 
     BECMG 2318/2320 3000 BR
       
LICZ 230055Z 23007KT CAVOK 07/07 Q1022 RMK SKC VIS MIN 9999 WIND THR28 24007KT WIND THR10 23007KT A3021 BLU
TAF LICZ 222300Z 2300/2309 28008KT 9999 FEW020
       
LIMF 230120Z 21002KT 6000 FEW030 06/04 Q1020
TAF LIMF 222300Z 2300/2324 31005KT 5000 BR SCT050 
     TEMPO 2300/2309 2500 DZ
       
LICT 230055Z 13008KT 9999 FEW025 12/11 Q1020 RMK FEW VIS MIN 9999 WIND THR13 11006KT BLU
TAF LICT 222300Z 2300/2309 13009KT 9999 FEW020
       
LIPH 230120Z AUTO 05003KT 6000 OVC064/// 07/05 Q1020
TAF LIPH 222300Z 2300/2324 VRB05KT 6000 SCT040 
     TEMPO 2300/2306 1500 BCFG BKN010 
     BECMG 2317/2319 3000 BR
       
LIPZ 230120Z 01004KT 320V030 6000 BKN060 07/05 Q1020 NOSIG
TAF LIPZ 222300Z 2300/2406 VRB05KT 6000 SCT045 
     TEMPO 2300/2307 1500 BCFG BKN010 
     BECMG 2318/2320 3000 BR 
     TEMPO 2400/2407 1200 BCFG BKN010
       
LIPX 230120Z VRB02KT 6000 BKN060 08/04 Q1020
TAF LIPX 222300Z 2300/2309 35005KT 5000 BR BKN050